LWOH

Details ICAO LWOH (OHD)
Name OHRID
Region Macedonia
Timezone Europe/Skopje (UTC+1.0)
Plans Departing 27
Arriving 31
Stats Elevation 2,313 ft / 705 m (AMSL)
Location 41.179927° 20.742314°
Runways 1
Magnetic Variation 4.365° E
Sunrise 2017-12-12 05:54:34 UTC / 2017-12-12 06:54:34 Local
Sunset 2017-12-12 15:09:46 UTC / 2017-12-12 16:09:46 Local
Advertisement - Login to hide

Runways

ID Width Length Bearing (true) Bearing (mag) Surface Threshold Offset Overrun Length
02 140 ft / 43 m 8,331 ft / 2,539 m 17.61° 13.25° Asphalt 0 ft / 0 m 0 ft / 0 m
20 140 ft / 43 m 8,331 ft / 2,539 m 197.62° 193.26° Asphalt 0 ft / 0 m 0 ft / 0 m

Approach Navaids

Runway Type Ident Frequency Range Bearing (true) Bearing (mag) Slope Elevation
02 Localiser MOH 108.90 MHz 25 nm / 46 km 18.00° 13.64° - 2,326 ft / 709 m (AMSL)
02 Glidescope MOH 108.90 MHz 25 nm / 46 km 18.00° 13.64° 3.20° 2,303 ft / 702 m (AMSL)

Map

Weather


0- 5 10 15 20 25 30 35+ Temperature / ° C

Clouds and Precipitation
Forecast for 2017-12-12 06:00 UTC. Updated an hour ago

Ground ~20,000 ft ~40,000 ft Winds

METAR

Not found

TAF

TAF LWOH 120530Z 1206/1306 VRB02KT 9999 FEW040 BECMG 1209/1211 22010KT CAVOK

Frequencies

Tower 119.20 MHz TWR
Approach 119.20 MHz APP
Warning: Do not use this data for real-world aviation or navigation. No guarantee of current accuracy is given.